sensor_id;sensor_type;location;lat;lon;timestamp;P1;durP1;ratioP1;P2;durP2;ratioP2
52724;SDS011;38621;52.830;6.914;2022-08-01T00:01:23;5.60;;;3.08;;
52724;SDS011;38621;52.830;6.914;2022-08-01T00:03:49;4.55;;;3.30;;
52724;SDS011;38621;52.830;6.914;2022-08-01T00:06:15;6.28;;;3.20;;
52724;SDS011;38621;52.830;6.914;2022-08-01T00:08:40;5.20;;;2.58;;
52724;SDS011;38621;52.830;6.914;2022-08-01T00:11:06;4.05;;;2.70;;
52724;SDS011;38621;52.830;6.914;2022-08-01T00:13:34;5.00;;;2.92;;
52724;SDS011;38621;52.830;6.914;2022-08-01T00:16:00;4.28;;;2.80;;
52724;SDS011;38621;52.830;6.914;2022-08-01T00:18:25;4.30;;;2.65;;
52724;SDS011;38621;52.830;6.914;2022-08-01T00:20:51;4.82;;;3.28;;
52724;SDS011;38621;52.830;6.914;2022-08-01T00:23:17;4.80;;;3.20;;
52724;SDS011;38621;52.830;6.914;2022-08-01T00:25:42;5.00;;;3.20;;
52724;SDS011;38621;52.830;6.914;2022-08-01T00:28:08;5.28;;;3.50;;
52724;SDS011;38621;52.830;6.914;2022-08-01T00:30:35;4.72;;;3.22;;
52724;SDS011;38621;52.830;6.914;2022-08-01T00:33:01;6.03;;;3.65;;
52724;SDS011;38621;52.830;6.914;2022-08-01T00:35:27;5.35;;;3.47;;
52724;SDS011;38621;52.830;6.914;2022-08-01T00:37:52;7.10;;;4.03;;
52724;SDS011;38621;52.830;6.914;2022-08-01T00:40:18;4.95;;;3.35;;
52724;SDS011;38621;52.830;6.914;2022-08-01T00:42:44;5.32;;;3.53;;
52724;SDS011;38621;52.830;6.914;2022-08-01T00:45:10;6.38;;;3.13;;
52724;SDS011;38621;52.830;6.914;2022-08-01T00:47:36;6.40;;;3.83;;
52724;SDS011;38621;52.830;6.914;2022-08-01T00:50:06;5.93;;;3.42;;
52724;SDS011;38621;52.830;6.914;2022-08-01T00:52:32;5.60;;;3.45;;
52724;SDS011;38621;52.830;6.914;2022-08-01T00:54:58;7.25;;;3.50;;
52724;SDS011;38621;52.830;6.914;2022-08-01T00:57:24;4.47;;;3.15;;
52724;SDS011;38621;52.830;6.914;2022-08-01T00:59:50;4.95;;;3.50;;
52724;SDS011;38621;52.830;6.914;2022-08-01T01:02:17;6.75;;;3.38;;
52724;SDS011;38621;52.830;6.914;2022-08-01T01:04:43;9.27;;;3.80;;
52724;SDS011;38621;52.830;6.914;2022-08-01T01:07:13;5.70;;;3.75;;
52724;SDS011;38621;52.830;6.914;2022-08-01T01:10:01;5.60;;;3.70;;
52724;SDS011;38621;52.830;6.914;2022-08-01T01:13:06;7.25;;;3.60;;
52724;SDS011;38621;52.830;6.914;2022-08-01T01:15:43;5.55;;;4.03;;
52724;SDS011;38621;52.830;6.914;2022-08-01T01:18:24;6.05;;;4.35;;
52724;SDS011;38621;52.830;6.914;2022-08-01T01:23:55;6.25;;;4.03;;
52724;SDS011;38621;52.830;6.914;2022-08-01T01:29:20;7.72;;;4.10;;
52724;SDS011;38621;52.830;6.914;2022-08-01T01:32:05;7.15;;;3.30;;
52724;SDS011;38621;52.830;6.914;2022-08-01T01:34:36;6.78;;;3.97;;
52724;SDS011;38621;52.830;6.914;2022-08-01T01:37:06;6.15;;;3.90;;
52724;SDS011;38621;52.830;6.914;2022-08-01T01:39:41;7.18;;;3.83;;
52724;SDS011;38621;52.830;6.914;2022-08-01T01:42:07;7.03;;;4.00;;
52724;SDS011;38621;52.830;6.914;2022-08-01T01:44:35;6.00;;;3.78;;
52724;SDS011;38621;52.830;6.914;2022-08-01T01:47:02;9.73;;;4.05;;
52724;SDS011;38621;52.830;6.914;2022-08-01T01:49:29;5.55;;;3.28;;
52724;SDS011;38621;52.830;6.914;2022-08-01T01:51:57;5.97;;;3.63;;
52724;SDS011;38621;52.830;6.914;2022-08-01T01:54:28;7.07;;;4.00;;
52724;SDS011;38621;52.830;6.914;2022-08-01T01:56:56;5.18;;;3.67;;
52724;SDS011;38621;52.830;6.914;2022-08-01T01:59:25;5.78;;;3.40;;
52724;SDS011;38621;52.830;6.914;2022-08-01T02:01:55;7.13;;;3.72;;
52724;SDS011;38621;52.830;6.914;2022-08-01T02:04:23;6.18;;;3.75;;
52724;SDS011;38621;52.830;6.914;2022-08-01T02:06:51;7.47;;;3.72;;
52724;SDS011;38621;52.830;6.914;2022-08-01T02:09:19;6.65;;;3.90;;
52724;SDS011;38621;52.830;6.914;2022-08-01T02:11:47;7.13;;;3.85;;
52724;SDS011;38621;52.830;6.914;2022-08-01T02:14:14;6.35;;;4.00;;
52724;SDS011;38621;52.830;6.914;2022-08-01T02:16:42;6.85;;;3.92;;
52724;SDS011;38621;52.830;6.914;2022-08-01T02:19:11;6.03;;;3.67;;
52724;SDS011;38621;52.830;6.914;2022-08-01T02:21:38;6.75;;;3.50;;
52724;SDS011;38621;52.830;6.914;2022-08-01T02:24:13;5.72;;;3.65;;
52724;SDS011;38621;52.830;6.914;2022-08-01T02:26:50;4.20;;;2.92;;
52724;SDS011;38621;52.830;6.914;2022-08-01T02:29:23;3.88;;;2.88;;
52724;SDS011;38621;52.830;6.914;2022-08-01T02:31:53;4.68;;;2.95;;
52724;SDS011;38621;52.830;6.914;2022-08-01T02:34:19;4.00;;;2.75;;
52724;SDS011;38621;52.830;6.914;2022-08-01T02:36:47;6.07;;;3.00;;
52724;SDS011;38621;52.830;6.914;2022-08-01T02:39:14;4.22;;;2.40;;
52724;SDS011;38621;52.830;6.914;2022-08-01T02:41:45;4.65;;;2.60;;
52724;SDS011;38621;52.830;6.914;2022-08-01T02:44:18;5.15;;;2.50;;
52724;SDS011;38621;52.830;6.914;2022-08-01T02:49:17;2.95;;;1.92;;
52724;SDS011;38621;52.830;6.914;2022-08-01T02:51:46;3.92;;;2.42;;
52724;SDS011;38621;52.830;6.914;2022-08-01T02:54:13;3.92;;;1.92;;
52724;SDS011;38621;52.830;6.914;2022-08-01T02:56:42;3.15;;;2.15;;
52724;SDS011;38621;52.830;6.914;2022-08-01T02:59:13;3.58;;;2.20;;
52724;SDS011;38621;52.830;6.914;2022-08-01T03:01:41;5.57;;;1.98;;
52724;SDS011;38621;52.830;6.914;2022-08-01T03:04:10;4.50;;;1.90;;
52724;SDS011;38621;52.830;6.914;2022-08-01T03:06:37;3.92;;;1.77;;
52724;SDS011;38621;52.830;6.914;2022-08-01T03:09:04;3.97;;;1.92;;
52724;SDS011;38621;52.830;6.914;2022-08-01T03:11:31;2.47;;;1.70;;
52724;SDS011;38621;52.830;6.914;2022-08-01T03:13:59;5.90;;;2.03;;
52724;SDS011;38621;52.830;6.914;2022-08-01T03:16:30;2.90;;;1.88;;
52724;SDS011;38621;52.830;6.914;2022-08-01T03:18:58;5.15;;;1.98;;
52724;SDS011;38621;52.830;6.914;2022-08-01T03:21:26;3.13;;;1.58;;
52724;SDS011;38621;52.830;6.914;2022-08-01T03:23:53;3.30;;;1.50;;
52724;SDS011;38621;52.830;6.914;2022-08-01T03:26:24;3.75;;;1.40;;
52724;SDS011;38621;52.830;6.914;2022-08-01T03:28:52;3.17;;;1.52;;
52724;SDS011;38621;52.830;6.914;2022-08-01T03:31:21;3.78;;;1.40;;
52724;SDS011;38621;52.830;6.914;2022-08-01T03:33:48;3.13;;;1.50;;
52724;SDS011;38621;52.830;6.914;2022-08-01T03:36:14;3.45;;;1.23;;
52724;SDS011;38621;52.830;6.914;2022-08-01T03:38:43;2.60;;;1.23;;
52724;SDS011;38621;52.830;6.914;2022-08-01T03:41:12;2.33;;;1.42;;
52724;SDS011;38621;52.830;6.914;2022-08-01T03:43:46;2.17;;;1.20;;
52724;SDS011;38621;52.830;6.914;2022-08-01T03:46:31;1.80;;;1.00;;
52724;SDS011;38621;52.830;6.914;2022-08-01T03:49:03;4.40;;;1.50;;
52724;SDS011;38621;52.830;6.914;2022-08-01T03:51:35;3.30;;;1.85;;
52724;SDS011;38621;52.830;6.914;2022-08-01T03:54:03;2.03;;;1.35;;
52724;SDS011;38621;52.830;6.914;2022-08-01T03:56:30;3.17;;;1.45;;
52724;SDS011;38621;52.830;6.914;2022-08-01T03:58:58;2.60;;;1.15;;
52724;SDS011;38621;52.830;6.914;2022-08-01T04:01:25;4.95;;;1.50;;
52724;SDS011;38621;52.830;6.914;2022-08-01T04:03:52;3.55;;;1.52;;
52724;SDS011;38621;52.830;6.914;2022-08-01T04:06:19;2.53;;;1.17;;
52724;SDS011;38621;52.830;6.914;2022-08-01T04:08:45;3.38;;;1.20;;
52724;SDS011;38621;52.830;6.914;2022-08-01T04:11:20;2.83;;;1.20;;
52724;SDS011;38621;52.830;6.914;2022-08-01T04:13:51;2.60;;;1.30;;
52724;SDS011;38621;52.830;6.914;2022-08-01T04:16:18;2.85;;;1.33;;
52724;SDS011;38621;52.830;6.914;2022-08-01T04:18:44;2.10;;;1.38;;
52724;SDS011;38621;52.830;6.914;2022-08-01T04:21:10;3.13;;;1.17;;
52724;SDS011;38621;52.830;6.914;2022-08-01T04:23:36;4.55;;;1.30;;
52724;SDS011;38621;52.830;6.914;2022-08-01T04:26:06;3.03;;;1.10;;
52724;SDS011;38621;52.830;6.914;2022-08-01T04:28:33;2.65;;;1.30;;
52724;SDS011;38621;52.830;6.914;2022-08-01T04:31:00;2.85;;;1.30;;
52724;SDS011;38621;52.830;6.914;2022-08-01T04:33:30;2.40;;;1.13;;
52724;SDS011;38621;52.830;6.914;2022-08-01T04:35:56;4.38;;;1.30;;
52724;SDS011;38621;52.830;6.914;2022-08-01T04:38:25;2.67;;;1.27;;
52724;SDS011;38621;52.830;6.914;2022-08-01T04:40:53;3.97;;;1.35;;
52724;SDS011;38621;52.830;6.914;2022-08-01T04:43:21;3.78;;;1.45;;
52724;SDS011;38621;52.830;6.914;2022-08-01T04:45:48;2.25;;;1.20;;
52724;SDS011;38621;52.830;6.914;2022-08-01T04:48:16;3.00;;;1.27;;
52724;SDS011;38621;52.830;6.914;2022-08-01T04:50:44;3.00;;;1.02;;
52724;SDS011;38621;52.830;6.914;2022-08-01T04:53:14;3.33;;;1.30;;
52724;SDS011;38621;52.830;6.914;2022-08-01T04:55:42;4.80;;;1.35;;
52724;SDS011;38621;52.830;6.914;2022-08-01T04:58:09;2.00;;;1.13;;
52724;SDS011;38621;52.830;6.914;2022-08-01T05:00:35;2.30;;;1.30;;
52724;SDS011;38621;52.830;6.914;2022-08-01T05:03:01;5.53;;;1.30;;
52724;SDS011;38621;52.830;6.914;2022-08-01T05:05:27;2.92;;;1.35;;
52724;SDS011;38621;52.830;6.914;2022-08-01T05:07:53;2.10;;;1.20;;
52724;SDS011;38621;52.830;6.914;2022-08-01T05:10:18;2.42;;;1.20;;
52724;SDS011;38621;52.830;6.914;2022-08-01T05:12:44;4.00;;;1.50;;
52724;SDS011;38621;52.830;6.914;2022-08-01T05:15:11;3.47;;;1.35;;
52724;SDS011;38621;52.830;6.914;2022-08-01T05:17:37;2.30;;;1.30;;
52724;SDS011;38621;52.830;6.914;2022-08-01T05:20:03;5.47;;;1.67;;
52724;SDS011;38621;52.830;6.914;2022-08-01T05:22:31;4.57;;;1.50;;
52724;SDS011;38621;52.830;6.914;2022-08-01T05:24:57;3.88;;;1.40;;
52724;SDS011;38621;52.830;6.914;2022-08-01T05:27:24;3.92;;;1.50;;
52724;SDS011;38621;52.830;6.914;2022-08-01T05:29:51;3.03;;;1.50;;
52724;SDS011;38621;52.830;6.914;2022-08-01T05:32:16;4.13;;;1.67;;
52724;SDS011;38621;52.830;6.914;2022-08-01T05:34:42;4.18;;;1.60;;
52724;SDS011;38621;52.830;6.914;2022-08-01T05:37:09;3.90;;;1.67;;
52724;SDS011;38621;52.830;6.914;2022-08-01T05:39:35;3.47;;;1.60;;
52724;SDS011;38621;52.830;6.914;2022-08-01T05:42:01;4.72;;;1.90;;
52724;SDS011;38621;52.830;6.914;2022-08-01T05:44:27;4.55;;;1.80;;
52724;SDS011;38621;52.830;6.914;2022-08-01T05:46:53;5.05;;;1.90;;
52724;SDS011;38621;52.830;6.914;2022-08-01T05:49:18;5.32;;;2.17;;
52724;SDS011;38621;52.830;6.914;2022-08-01T05:51:44;4.18;;;1.67;;
52724;SDS011;38621;52.830;6.914;2022-08-01T05:54:10;7.18;;;1.80;;
52724;SDS011;38621;52.830;6.914;2022-08-01T05:56:36;3.38;;;1.77;;
52724;SDS011;38621;52.830;6.914;2022-08-01T05:59:01;3.90;;;1.65;;
52724;SDS011;38621;52.830;6.914;2022-08-01T06:01:27;4.53;;;1.75;;
52724;SDS011;38621;52.830;6.914;2022-08-01T06:03:53;3.00;;;1.55;;
52724;SDS011;38621;52.830;6.914;2022-08-01T06:06:19;3.65;;;1.98;;
52724;SDS011;38621;52.830;6.914;2022-08-01T06:08:46;4.72;;;1.90;;
52724;SDS011;38621;52.830;6.914;2022-08-01T06:11:12;5.97;;;2.10;;
52724;SDS011;38621;52.830;6.914;2022-08-01T06:13:37;6.00;;;1.77;;
52724;SDS011;38621;52.830;6.914;2022-08-01T06:16:03;3.60;;;2.00;;
52724;SDS011;38621;52.830;6.914;2022-08-01T06:18:29;8.18;;;1.92;;
52724;SDS011;38621;52.830;6.914;2022-08-01T06:20:55;5.00;;;2.17;;
52724;SDS011;38621;52.830;6.914;2022-08-01T06:23:21;5.68;;;2.05;;
52724;SDS011;38621;52.830;6.914;2022-08-01T06:25:47;4.88;;;1.75;;
52724;SDS011;38621;52.830;6.914;2022-08-01T06:28:13;5.78;;;2.05;;
52724;SDS011;38621;52.830;6.914;2022-08-01T06:30:38;7.65;;;1.67;;
52724;SDS011;38621;52.830;6.914;2022-08-01T06:33:04;5.65;;;1.55;;
52724;SDS011;38621;52.830;6.914;2022-08-01T06:35:30;5.32;;;1.38;;
52724;SDS011;38621;52.830;6.914;2022-08-01T06:37:56;6.32;;;1.77;;
52724;SDS011;38621;52.830;6.914;2022-08-01T06:40:22;6.72;;;2.00;;
52724;SDS011;38621;52.830;6.914;2022-08-01T06:42:48;5.13;;;1.67;;
52724;SDS011;38621;52.830;6.914;2022-08-01T06:45:14;6.82;;;2.05;;
52724;SDS011;38621;52.830;6.914;2022-08-01T06:47:41;6.57;;;1.70;;
52724;SDS011;38621;52.830;6.914;2022-08-01T06:50:08;5.13;;;2.30;;
52724;SDS011;38621;52.830;6.914;2022-08-01T06:52:34;7.95;;;2.05;;
52724;SDS011;38621;52.830;6.914;2022-08-01T06:55:01;6.05;;;2.00;;
52724;SDS011;38621;52.830;6.914;2022-08-01T06:57:27;8.52;;;2.00;;
52724;SDS011;38621;52.830;6.914;2022-08-01T06:59:53;5.82;;;2.15;;
52724;SDS011;38621;52.830;6.914;2022-08-01T07:02:19;6.43;;;1.95;;
52724;SDS011;38621;52.830;6.914;2022-08-01T07:04:45;6.10;;;1.88;;
52724;SDS011;38621;52.830;6.914;2022-08-01T07:07:10;7.90;;;1.98;;
52724;SDS011;38621;52.830;6.914;2022-08-01T07:09:36;6.97;;;1.90;;
52724;SDS011;38621;52.830;6.914;2022-08-01T07:12:03;5.53;;;1.90;;
52724;SDS011;38621;52.830;6.914;2022-08-01T07:14:29;6.40;;;1.50;;
52724;SDS011;38621;52.830;6.914;2022-08-01T07:16:54;6.80;;;1.77;;
52724;SDS011;38621;52.830;6.914;2022-08-01T07:19:20;6.97;;;1.88;;
52724;SDS011;38621;52.830;6.914;2022-08-01T07:21:46;5.53;;;1.95;;
52724;SDS011;38621;52.830;6.914;2022-08-01T07:24:12;6.90;;;1.90;;
52724;SDS011;38621;52.830;6.914;2022-08-01T07:26:43;5.25;;;1.80;;
52724;SDS011;38621;52.830;6.914;2022-08-01T07:29:12;5.35;;;2.10;;
52724;SDS011;38621;52.830;6.914;2022-08-01T07:31:39;7.68;;;1.92;;
52724;SDS011;38621;52.830;6.914;2022-08-01T07:34:06;5.25;;;2.10;;
52724;SDS011;38621;52.830;6.914;2022-08-01T07:36:32;8.63;;;2.10;;
52724;SDS011;38621;52.830;6.914;2022-08-01T07:38:57;7.50;;;2.00;;
52724;SDS011;38621;52.830;6.914;2022-08-01T07:41:23;7.07;;;1.85;;
52724;SDS011;38621;52.830;6.914;2022-08-01T07:43:49;8.25;;;1.95;;
52724;SDS011;38621;52.830;6.914;2022-08-01T07:46:15;5.40;;;1.90;;
52724;SDS011;38621;52.830;6.914;2022-08-01T07:48:42;8.95;;;1.95;;
52724;SDS011;38621;52.830;6.914;2022-08-01T07:51:08;4.90;;;1.90;;
52724;SDS011;38621;52.830;6.914;2022-08-01T07:53:35;6.93;;;2.28;;
52724;SDS011;38621;52.830;6.914;2022-08-01T07:56:01;4.93;;;1.73;;
52724;SDS011;38621;52.830;6.914;2022-08-01T07:58:27;6.22;;;1.90;;
52724;SDS011;38621;52.830;6.914;2022-08-01T08:00:53;5.72;;;1.52;;
52724;SDS011;38621;52.830;6.914;2022-08-01T08:03:19;7.47;;;1.80;;
52724;SDS011;38621;52.830;6.914;2022-08-01T08:05:44;7.43;;;1.85;;
52724;SDS011;38621;52.830;6.914;2022-08-01T08:08:10;8.35;;;2.10;;
52724;SDS011;38621;52.830;6.914;2022-08-01T08:10:36;6.05;;;2.13;;
52724;SDS011;38621;52.830;6.914;2022-08-01T08:13:02;5.88;;;1.70;;
52724;SDS011;38621;52.830;6.914;2022-08-01T08:15:28;6.32;;;2.10;;
52724;SDS011;38621;52.830;6.914;2022-08-01T08:17:54;6.75;;;1.88;;
52724;SDS011;38621;52.830;6.914;2022-08-01T08:20:20;3.67;;;1.70;;
52724;SDS011;38621;52.830;6.914;2022-08-01T08:22:52;6.22;;;1.80;;
52724;SDS011;38621;52.830;6.914;2022-08-01T08:25:18;8.07;;;2.03;;
52724;SDS011;38621;52.830;6.914;2022-08-01T08:27:47;4.50;;;1.52;;
52724;SDS011;38621;52.830;6.914;2022-08-01T08:30:13;6.25;;;1.70;;
52724;SDS011;38621;52.830;6.914;2022-08-01T08:32:39;5.43;;;1.88;;
52724;SDS011;38621;52.830;6.914;2022-08-01T08:35:06;5.63;;;1.80;;
52724;SDS011;38621;52.830;6.914;2022-08-01T08:37:33;6.63;;;1.92;;
52724;SDS011;38621;52.830;6.914;2022-08-01T08:39:59;5.63;;;1.85;;
52724;SDS011;38621;52.830;6.914;2022-08-01T08:42:25;4.57;;;1.80;;
52724;SDS011;38621;52.830;6.914;2022-08-01T08:44:51;7.72;;;2.10;;
52724;SDS011;38621;52.830;6.914;2022-08-01T08:47:19;4.75;;;1.90;;
52724;SDS011;38621;52.830;6.914;2022-08-01T08:49:47;7.57;;;2.22;;
52724;SDS011;38621;52.830;6.914;2022-08-01T08:52:15;6.22;;;1.65;;
52724;SDS011;38621;52.830;6.914;2022-08-01T08:54:42;4.97;;;1.90;;
52724;SDS011;38621;52.830;6.914;2022-08-01T08:57:09;7.70;;;1.90;;
52724;SDS011;38621;52.830;6.914;2022-08-01T08:59:38;5.07;;;1.95;;
52724;SDS011;38621;52.830;6.914;2022-08-01T09:02:04;5.20;;;1.90;;
52724;SDS011;38621;52.830;6.914;2022-08-01T09:04:30;5.85;;;1.73;;
52724;SDS011;38621;52.830;6.914;2022-08-01T09:06:56;5.85;;;1.65;;
52724;SDS011;38621;52.830;6.914;2022-08-01T09:09:22;5.60;;;2.30;;
52724;SDS011;38621;52.830;6.914;2022-08-01T09:11:48;6.55;;;2.10;;
52724;SDS011;38621;52.830;6.914;2022-08-01T09:14:15;5.88;;;2.00;;
52724;SDS011;38621;52.830;6.914;2022-08-01T09:17:06;6.05;;;1.80;;
52724;SDS011;38621;52.830;6.914;2022-08-01T09:19:39;6.93;;;1.70;;
52724;SDS011;38621;52.830;6.914;2022-08-01T09:22:10;5.88;;;1.88;;
52724;SDS011;38621;52.830;6.914;2022-08-01T09:24:38;6.53;;;1.70;;
52724;SDS011;38621;52.830;6.914;2022-08-01T09:27:18;5.13;;;1.70;;
52724;SDS011;38621;52.830;6.914;2022-08-01T09:29:46;5.50;;;1.65;;
52724;SDS011;38621;52.830;6.914;2022-08-01T09:32:11;6.85;;;2.25;;
52724;SDS011;38621;52.830;6.914;2022-08-01T09:34:37;6.55;;;1.67;;
52724;SDS011;38621;52.830;6.914;2022-08-01T09:37:03;5.78;;;1.55;;
52724;SDS011;38621;52.830;6.914;2022-08-01T09:39:34;7.22;;;1.60;;
52724;SDS011;38621;52.830;6.914;2022-08-01T09:42:17;5.93;;;1.40;;
52724;SDS011;38621;52.830;6.914;2022-08-01T09:44:46;5.18;;;1.42;;
52724;SDS011;38621;52.830;6.914;2022-08-01T09:47:12;4.53;;;1.40;;
52724;SDS011;38621;52.830;6.914;2022-08-01T09:49:40;7.10;;;1.70;;
52724;SDS011;38621;52.830;6.914;2022-08-01T09:52:16;4.13;;;1.63;;
52724;SDS011;38621;52.830;6.914;2022-08-01T09:54:43;4.60;;;1.45;;
52724;SDS011;38621;52.830;6.914;2022-08-01T09:57:17;5.97;;;1.70;;
52724;SDS011;38621;52.830;6.914;2022-08-01T09:59:46;4.30;;;1.50;;
52724;SDS011;38621;52.830;6.914;2022-08-01T10:02:25;5.10;;;1.45;;
52724;SDS011;38621;52.830;6.914;2022-08-01T10:04:55;5.07;;;1.52;;
52724;SDS011;38621;52.830;6.914;2022-08-01T10:07:21;4.20;;;1.30;;
52724;SDS011;38621;52.830;6.914;2022-08-01T10:09:47;5.55;;;1.40;;
52724;SDS011;38621;52.830;6.914;2022-08-01T10:12:15;4.30;;;1.20;;
52724;SDS011;38621;52.830;6.914;2022-08-01T10:14:44;7.30;;;1.45;;
52724;SDS011;38621;52.830;6.914;2022-08-01T10:17:15;5.20;;;1.20;;
52724;SDS011;38621;52.830;6.914;2022-08-01T10:19:43;4.13;;;1.35;;
52724;SDS011;38621;52.830;6.914;2022-08-01T10:22:10;5.05;;;1.75;;
52724;SDS011;38621;52.830;6.914;2022-08-01T10:24:42;4.65;;;1.40;;
52724;SDS011;38621;52.830;6.914;2022-08-01T10:27:11;3.10;;;1.30;;
52724;SDS011;38621;52.830;6.914;2022-08-01T10:29:41;3.95;;;1.15;;
52724;SDS011;38621;52.830;6.914;2022-08-01T10:32:07;5.97;;;2.00;;
52724;SDS011;38621;52.830;6.914;2022-08-01T10:34:35;4.03;;;1.20;;
52724;SDS011;38621;52.830;6.914;2022-08-01T10:37:02;3.03;;;1.20;;
52724;SDS011;38621;52.830;6.914;2022-08-01T10:39:30;5.00;;;1.48;;
52724;SDS011;38621;52.830;6.914;2022-08-01T10:41:57;5.28;;;1.70;;
52724;SDS011;38621;52.830;6.914;2022-08-01T10:44:24;3.40;;;1.33;;
52724;SDS011;38621;52.830;6.914;2022-08-01T10:46:52;7.55;;;2.00;;
52724;SDS011;38621;52.830;6.914;2022-08-01T10:49:26;6.97;;;1.23;;
52724;SDS011;38621;52.830;6.914;2022-08-01T10:51:55;7.78;;;1.25;;
52724;SDS011;38621;52.830;6.914;2022-08-01T10:54:24;3.20;;;1.05;;
52724;SDS011;38621;52.830;6.914;2022-08-01T10:56:51;6.47;;;1.40;;
52724;SDS011;38621;52.830;6.914;2022-08-01T10:59:28;3.45;;;1.20;;
52724;SDS011;38621;52.830;6.914;2022-08-01T11:01:57;4.35;;;1.15;;
52724;SDS011;38621;52.830;6.914;2022-08-01T11:07:07;3.33;;;1.13;;
52724;SDS011;38621;52.830;6.914;2022-08-01T11:09:39;2.58;;;1.17;;
52724;SDS011;38621;52.830;6.914;2022-08-01T11:12:14;4.82;;;1.27;;
52724;SDS011;38621;52.830;6.914;2022-08-01T11:17:38;4.28;;;1.75;;
52724;SDS011;38621;52.830;6.914;2022-08-01T11:20:24;4.97;;;1.30;;
52724;SDS011;38621;52.830;6.914;2022-08-01T11:30:49;4.25;;;1.20;;
52724;SDS011;38621;52.830;6.914;2022-08-01T11:38:45;2.92;;;1.10;;
52724;SDS011;38621;52.830;6.914;2022-08-01T11:41:16;5.53;;;1.30;;
52724;SDS011;38621;52.830;6.914;2022-08-01T11:49:31;3.60;;;1.08;;
52724;SDS011;38621;52.830;6.914;2022-08-01T11:52:16;2.40;;;0.88;;
52724;SDS011;38621;52.830;6.914;2022-08-01T11:54:51;6.25;;;1.30;;
52724;SDS011;38621;52.830;6.914;2022-08-01T11:57:19;3.05;;;1.02;;
52724;SDS011;38621;52.830;6.914;2022-08-01T11:59:53;2.70;;;1.00;;
52724;SDS011;38621;52.830;6.914;2022-08-01T12:02:29;3.42;;;1.10;;
52724;SDS011;38621;52.830;6.914;2022-08-01T12:04:58;2.95;;;1.08;;
52724;SDS011;38621;52.830;6.914;2022-08-01T12:07:35;3.50;;;1.00;;
52724;SDS011;38621;52.830;6.914;2022-08-01T12:10:05;3.13;;;1.23;;
52724;SDS011;38621;52.830;6.914;2022-08-01T12:12:33;2.95;;;0.90;;
52724;SDS011;38621;52.830;6.914;2022-08-01T12:15:00;3.85;;;1.00;;
52724;SDS011;38621;52.830;6.914;2022-08-01T12:17:32;2.90;;;0.82;;
52724;SDS011;38621;52.830;6.914;2022-08-01T12:20:06;3.38;;;0.90;;
52724;SDS011;38621;52.830;6.914;2022-08-01T12:22:34;2.67;;;0.90;;
52724;SDS011;38621;52.830;6.914;2022-08-01T12:25:13;2.45;;;1.05;;
52724;SDS011;38621;52.830;6.914;2022-08-01T12:27:41;4.05;;;0.80;;
52724;SDS011;38621;52.830;6.914;2022-08-01T12:30:12;3.80;;;1.10;;
52724;SDS011;38621;52.830;6.914;2022-08-01T12:32:40;5.30;;;1.00;;
52724;SDS011;38621;52.830;6.914;2022-08-01T12:37:42;3.38;;;1.10;;
52724;SDS011;38621;52.830;6.914;2022-08-01T12:40:52;3.97;;;1.05;;
52724;SDS011;38621;52.830;6.914;2022-08-01T12:43:01;2.95;;;0.90;;
52724;SDS011;38621;52.830;6.914;2022-08-01T12:45:39;2.88;;;1.00;;
52724;SDS011;38621;52.830;6.914;2022-08-01T12:48:13;3.47;;;0.95;;
52724;SDS011;38621;52.830;6.914;2022-08-01T12:50:41;1.95;;;0.88;;
52724;SDS011;38621;52.830;6.914;2022-08-01T12:53:09;3.13;;;0.90;;
52724;SDS011;38621;52.830;6.914;2022-08-01T12:55:45;4.93;;;1.30;;
52724;SDS011;38621;52.830;6.914;2022-08-01T12:58:12;2.58;;;0.90;;
52724;SDS011;38621;52.830;6.914;2022-08-01T13:00:40;2.30;;;0.90;;
52724;SDS011;38621;52.830;6.914;2022-08-01T13:08:11;4.33;;;0.87;;
52724;SDS011;38621;52.830;6.914;2022-08-01T13:10:41;4.18;;;1.10;;
52724;SDS011;38621;52.830;6.914;2022-08-01T13:13:07;1.83;;;0.82;;
52724;SDS011;38621;52.830;6.914;2022-08-01T13:15:35;3.90;;;1.02;;
52724;SDS011;38621;52.830;6.914;2022-08-01T13:21:11;3.88;;;1.20;;
52724;SDS011;38621;52.830;6.914;2022-08-01T13:26:04;5.05;;;1.20;;
52724;SDS011;38621;52.830;6.914;2022-08-01T13:28:31;4.13;;;1.23;;
52724;SDS011;38621;52.830;6.914;2022-08-01T13:31:04;2.95;;;1.00;;
52724;SDS011;38621;52.830;6.914;2022-08-01T13:33:43;4.28;;;0.80;;
52724;SDS011;38621;52.830;6.914;2022-08-01T13:36:10;3.10;;;1.10;;
52724;SDS011;38621;52.830;6.914;2022-08-01T13:38:37;3.25;;;1.00;;
52724;SDS011;38621;52.830;6.914;2022-08-01T13:41:22;3.40;;;1.00;;
52724;SDS011;38621;52.830;6.914;2022-08-01T13:43:48;2.63;;;0.85;;
52724;SDS011;38621;52.830;6.914;2022-08-01T13:46:14;3.28;;;1.05;;
52724;SDS011;38621;52.830;6.914;2022-08-01T13:48:39;2.78;;;0.80;;
52724;SDS011;38621;52.830;6.914;2022-08-01T13:51:05;3.50;;;0.90;;
52724;SDS011;38621;52.830;6.914;2022-08-01T13:53:31;2.53;;;1.00;;
52724;SDS011;38621;52.830;6.914;2022-08-01T13:55:56;3.15;;;0.85;;
52724;SDS011;38621;52.830;6.914;2022-08-01T13:58:22;2.40;;;0.80;;
52724;SDS011;38621;52.830;6.914;2022-08-01T14:00:48;2.40;;;0.93;;
52724;SDS011;38621;52.830;6.914;2022-08-01T14:03:14;3.55;;;1.00;;
52724;SDS011;38621;52.830;6.914;2022-08-01T14:05:42;5.45;;;1.05;;
52724;SDS011;38621;52.830;6.914;2022-08-01T14:08:08;3.13;;;0.93;;
52724;SDS011;38621;52.830;6.914;2022-08-01T14:10:34;1.77;;;0.90;;
52724;SDS011;38621;52.830;6.914;2022-08-01T14:13:00;3.13;;;0.70;;
52724;SDS011;38621;52.830;6.914;2022-08-01T14:15:25;4.05;;;0.93;;
52724;SDS011;38621;52.830;6.914;2022-08-01T14:17:51;2.50;;;0.80;;
52724;SDS011;38621;52.830;6.914;2022-08-01T14:20:17;2.60;;;0.90;;
52724;SDS011;38621;52.830;6.914;2022-08-01T14:22:47;3.80;;;1.00;;
52724;SDS011;38621;52.830;6.914;2022-08-01T14:25:14;3.25;;;1.00;;
52724;SDS011;38621;52.830;6.914;2022-08-01T14:27:39;3.35;;;0.80;;
52724;SDS011;38621;52.830;6.914;2022-08-01T14:30:07;2.72;;;0.70;;
52724;SDS011;38621;52.830;6.914;2022-08-01T14:32:34;2.80;;;0.80;;
52724;SDS011;38621;52.830;6.914;2022-08-01T14:35:03;4.05;;;0.88;;
52724;SDS011;38621;52.830;6.914;2022-08-01T14:37:30;1.90;;;0.70;;
52724;SDS011;38621;52.830;6.914;2022-08-01T14:39:57;1.92;;;0.65;;
52724;SDS011;38621;52.830;6.914;2022-08-01T14:42:23;3.40;;;0.80;;
52724;SDS011;38621;52.830;6.914;2022-08-01T14:44:50;2.75;;;1.00;;
52724;SDS011;38621;52.830;6.914;2022-08-01T14:47:16;2.65;;;0.80;;
52724;SDS011;38621;52.830;6.914;2022-08-01T14:49:41;2.83;;;0.90;;
52724;SDS011;38621;52.830;6.914;2022-08-01T14:52:07;2.33;;;0.90;;
52724;SDS011;38621;52.830;6.914;2022-08-01T14:54:33;3.30;;;0.77;;
52724;SDS011;38621;52.830;6.914;2022-08-01T14:56:58;2.58;;;0.90;;
52724;SDS011;38621;52.830;6.914;2022-08-01T14:59:24;3.45;;;0.73;;
52724;SDS011;38621;52.830;6.914;2022-08-01T15:01:50;3.10;;;0.68;;
52724;SDS011;38621;52.830;6.914;2022-08-01T15:04:15;2.15;;;0.90;;
52724;SDS011;38621;52.830;6.914;2022-08-01T15:06:42;2.10;;;0.80;;
52724;SDS011;38621;52.830;6.914;2022-08-01T15:09:09;3.35;;;0.80;;
52724;SDS011;38621;52.830;6.914;2022-08-01T15:11:35;2.92;;;0.73;;
52724;SDS011;38621;52.830;6.914;2022-08-01T15:14:01;2.58;;;0.85;;
52724;SDS011;38621;52.830;6.914;2022-08-01T15:16:46;2.50;;;0.80;;
52724;SDS011;38621;52.830;6.914;2022-08-01T15:19:12;2.83;;;0.80;;
52724;SDS011;38621;52.830;6.914;2022-08-01T15:21:38;3.10;;;1.02;;
52724;SDS011;38621;52.830;6.914;2022-08-01T15:24:04;3.50;;;0.90;;
52724;SDS011;38621;52.830;6.914;2022-08-01T15:26:30;2.30;;;0.90;;
52724;SDS011;38621;52.830;6.914;2022-08-01T15:28:56;3.75;;;0.80;;
52724;SDS011;38621;52.830;6.914;2022-08-01T15:31:21;3.75;;;0.80;;
52724;SDS011;38621;52.830;6.914;2022-08-01T15:33:47;2.67;;;0.73;;
52724;SDS011;38621;52.830;6.914;2022-08-01T15:36:13;2.85;;;0.82;;
52724;SDS011;38621;52.830;6.914;2022-08-01T15:38:38;2.50;;;0.80;;
52724;SDS011;38621;52.830;6.914;2022-08-01T15:41:04;3.67;;;0.85;;